Aérodrome :
LOGIN :

S'inscrire | Disclaimer

   EN    FR    IT 

 










Légende :    VFR   VFR Marginal   IFR   IFR Intensif   IFR Très Intensif
Visi : 
Plafond : 
>= 8 km
>= 3000ft
5 à 8 km
1000 à 3000 ft
1500m à 5 km
500 à 1000 ft
800 à 1500m
200 à 500 ft
< 800m
< 200 ft
Symboles :   Orages  Brouillard  Fortes neiges  Fortes précipitations  Vent > 20 kt
SIGMETs :   Divers  Orages  Givrage  Turbulence  Onde Orograph.  Cendres Volcan.






- Altitude de l'aérodrome : 978 ft
- Code IATA : LNZ


LOWL - Linz

DERNIER METAR :
  • 201320Z 12006KT 090V160 9999 FEW007 SCT250 15/11 Q1012 NOSIG

METARs EXPIRÉS :
  • 201250Z 09006KT 060V130 9999 FEW007 SCT250 14/11 Q1012 NOSIG
  • 201220Z 13004KT 080V180 9999 SCT008 BKN250 13/10 Q1013 NOSIG
  • 201150Z 11007KT 070V150 9999 FEW005 SCT010 13/10 Q1013 NOSIG
  • 201120Z 11005KT 070V160 9999 FEW005 BKN008 12/10 Q1013 BECMG SCT010
  • 201050Z 11005KT 080V140 9999 FEW004 BKN007 11/10 Q1013 NOSIG

TAF TAF LOWL
Valide du 20 à 12h jusqu'au 21 à 12h UTC


201115Z 2012/2112 08005KT 8000 BKN005 TX17/2112Z TN09/2102Z
TEMPO 2012/2018 10010KT 9999 SCT010
BECMG 2018/2021 VRB01KT 3000 BR OVC003
TEMPO 2101/2109 0100 FG VV001



MET'MAP, la Météo Aéronautique d'un coup d'oeil ! - Copyright ORBIFLY Décembre 2007 - Disclaimer

ORBIFLY MET'MAP TEAM :

Programmation & Développement : Alexandra Zaïnal
Conception & Développement : Baudouin d'Aumeries
Co-Programmation & Développement : Marc-Olivier Méhu
Soutien technique & logistique : Manuel Goepfert

Contact : metmap@orbifly.com




SOURCES & CREDITS :

   NOAA